Pronoi R — 9HA2951 — position and weather

sailwx.info

Track history (hours):
 
Tides and Currents Weather Stations Pressure Air Temp Water Temp Dewpoint Dewpoint Depression Visibility Wind Speed Wind Dir Waves Ship Positions

Pronoi R

Last reported at 2018-Feb-06 16:02 UTC. Time now 2018-Feb-18 07:19 UTC.
Position N 41°38' E 141°45'.
Warning: this ship's position is 11 days out of date.

Length 200 m; draft 8.5 m.

Type: Cargo ship. MMSI: 256879000.

Date/timePositionNaut miles runAvg speedWind from/ knotsBaromVisibWave heightAir tempDewpointWater temp
2018-Feb-06 16:02N 41°38' E 141°45'212.6
2018-Feb-06 15:55N 41°38' E 141°43'2013.2
2018-Feb-06 14:26N 41°37' E 141°17'512.4
2018-Feb-06 14:00N 41°37' E 141°10'713.6
2018-Feb-06 13:30N 41°37' E 141°01'714.2
2018-Feb-06 13:00N 41°35' E 140°51'1413.6
2018-Feb-06 12:00N 41°28' E 140°36'713.3
2018-Feb-06 11:30N 41°25' E 140°29'713.8
2018-Feb-06 11:00N 41°21' E 140°21'  
Track history (hours):
 
Tides and Currents Weather Stations Pressure Air Temp Water Temp Dewpoint Dewpoint Depression Visibility Wind Speed Wind Dir Waves Ship Positions

Pronoi R

Last reported at 2018-Feb-06 16:02 UTC. Time now 2018-Feb-18 07:19 UTC.
Position N 41°38' E 141°45'.
Warning: this ship's position is 11 days out of date.

Length 200 m; draft 8.5 m.

Type: Cargo ship. MMSI: 256879000.

Date/timePositionNaut miles runAvg speedWind from/ knotsBaromVisibWave heightAir tempDewpointWater temp
2018-Feb-06 16:02N 41°38' E 141°45'212.6
2018-Feb-06 15:55N 41°38' E 141°43'2013.2
2018-Feb-06 14:26N 41°37' E 141°17'512.4
2018-Feb-06 14:00N 41°37' E 141°10'713.6
2018-Feb-06 13:30N 41°37' E 141°01'714.2
2018-Feb-06 13:00N 41°35' E 140°51'1413.6
2018-Feb-06 12:00N 41°28' E 140°36'713.3
2018-Feb-06 11:30N 41°25' E 140°29'713.8
2018-Feb-06 11:00N 41°21' E 140°21'  

Dump ship's entire track history